createdAt,value
2023-02-07T00:00:51.761Z,9.23
2023-02-07T00:03:18.529Z,9.48
2023-02-07T00:05:45.014Z,9.73
2023-02-07T00:08:11.860Z,9.80
2023-02-07T00:13:06.395Z,8.60
2023-02-07T00:15:33.135Z,9.32
2023-02-07T00:17:59.731Z,8.80
2023-02-07T00:20:26.288Z,9.65
2023-02-07T00:22:52.884Z,9.13
2023-02-07T00:25:19.375Z,9.80
2023-02-07T00:27:46.036Z,9.98
2023-02-07T00:30:13.274Z,8.80
2023-02-07T00:32:39.874Z,9.07
2023-02-07T00:35:07.003Z,10.57
2023-02-07T00:37:33.545Z,8.95
2023-02-07T00:40:00.048Z,9.18
2023-02-07T00:42:26.544Z,9.73
2023-02-07T00:44:53.113Z,11.85
2023-02-07T00:47:19.608Z,15.32
2023-02-07T00:49:46.187Z,15.05
2023-02-07T00:52:12.761Z,11.50
2023-02-07T00:54:39.264Z,11.38
2023-02-07T00:57:05.841Z,10.48
2023-02-07T00:59:32.352Z,9.85
2023-02-07T01:01:58.841Z,9.63
2023-02-07T01:04:25.402Z,9.95
2023-02-07T01:06:51.915Z,9.52
2023-02-07T01:09:19.092Z,8.73
2023-02-07T01:11:45.683Z,8.38
2023-02-07T01:14:12.245Z,12.68
2023-02-07T01:16:39.013Z,9.85
2023-02-07T01:19:08.225Z,11.48
2023-02-07T01:21:35.122Z,11.40
2023-02-07T01:24:01.928Z,11.07
2023-02-07T01:28:56.479Z,9.63
2023-02-07T01:31:24.199Z,9.95
2023-02-07T01:33:58.932Z,9.13
2023-02-07T01:36:27.846Z,9.73
2023-02-07T01:38:55.185Z,9.40
2023-02-07T01:41:23.366Z,8.70
2023-02-07T01:44:05.817Z,9.75
2023-02-07T01:46:34.226Z,9.20
2023-02-07T01:49:12.281Z,10.95
2023-02-07T01:51:44.982Z,9.65
2023-02-07T01:54:13.981Z,8.70
2023-02-07T01:56:45.252Z,9.13
2023-02-07T01:59:12.768Z,11.30
2023-02-07T02:01:39.475Z,9.48
2023-02-07T02:04:06.053Z,11.07
2023-02-07T02:06:33.257Z,10.40
2023-02-07T02:09:02.704Z,10.38
2023-02-07T02:12:06.859Z,9.55
2023-02-07T02:14:36.029Z,10.13
2023-02-07T02:17:17.606Z,9.88
2023-02-07T02:20:06.603Z,10.35
2023-02-07T02:22:51.398Z,10.10
2023-02-07T02:25:37.579Z,10.23
2023-02-07T02:28:34.822Z,10.30
2023-02-07T02:31:19.505Z,9.43
2023-02-07T02:34:11.691Z,9.77
2023-02-07T02:37:02.248Z,10.43
2023-02-07T02:39:39.083Z,10.23
2023-02-07T02:42:11.578Z,11.10
2023-02-07T02:44:41.532Z,11.98
2023-02-07T02:47:10.200Z,10.45
2023-02-07T02:49:38.374Z,10.35
2023-02-07T02:52:05.350Z,11.00
2023-02-07T02:54:41.054Z,11.32
2023-02-07T02:57:45.290Z,9.52
2023-02-07T03:00:14.774Z,10.90
2023-02-07T03:03:18.900Z,9.50
2023-02-07T03:06:06.860Z,10.00
2023-02-07T03:11:15.695Z,9.23
2023-02-07T03:13:53.628Z,9.80
2023-02-07T03:16:21.638Z,10.70
2023-02-07T03:19:13.552Z,10.50
2023-02-07T03:21:47.065Z,10.40
2023-02-07T03:24:21.706Z,9.85
2023-02-07T03:26:51.846Z,10.13
2023-02-07T03:29:21.133Z,12.10
2023-02-07T03:31:53.161Z,9.75
2023-02-07T03:34:23.701Z,10.98
2023-02-07T03:36:57.499Z,10.63
2023-02-07T03:39:24.859Z,10.95
2023-02-07T03:42:04.833Z,9.85
2023-02-07T03:44:34.903Z,10.45
2023-02-07T03:47:01.613Z,10.65
2023-02-07T03:49:28.471Z,10.43
2023-02-07T03:54:24.740Z,9.52
2023-02-07T03:56:51.255Z,10.90
2023-02-07T03:59:17.858Z,10.70
2023-02-07T04:01:44.425Z,10.68
2023-02-07T04:04:11.875Z,10.35
2023-02-07T04:06:38.954Z,10.73
2023-02-07T04:09:05.474Z,11.23
2023-02-07T04:11:32.014Z,11.75
2023-02-07T04:13:58.569Z,11.18
2023-02-07T04:16:25.373Z,10.23
2023-02-07T04:21:18.344Z,9.82
2023-02-07T04:23:44.895Z,10.50
2023-02-07T04:26:11.741Z,11.43
2023-02-07T04:31:04.922Z,10.77
2023-02-07T04:35:59.981Z,9.93
2023-02-07T04:38:26.869Z,11.27
2023-02-07T04:40:58.280Z,11.27
2023-02-07T04:43:24.902Z,10.70
2023-02-07T04:45:51.546Z,11.55
2023-02-07T04:48:18.095Z,10.38
2023-02-07T04:50:44.564Z,11.38
2023-02-07T04:53:11.132Z,11.32
2023-02-07T04:55:37.990Z,11.73
2023-02-07T04:58:06.040Z,12.20
2023-02-07T05:00:33.536Z,10.65
2023-02-07T05:03:01.022Z,10.07
2023-02-07T05:05:27.542Z,8.88
2023-02-07T05:07:54.133Z,9.35
2023-02-07T05:10:20.726Z,10.35
2023-02-07T05:12:47.317Z,10.43
2023-02-07T05:15:13.815Z,10.13
2023-02-07T05:17:40.296Z,8.90
2023-02-07T05:20:08.213Z,7.80
2023-02-07T05:22:34.697Z,8.52
2023-02-07T05:25:01.224Z,8.77
2023-02-07T05:27:27.734Z,8.35
2023-02-07T05:29:54.306Z,8.45
2023-02-07T05:32:39.475Z,8.73
2023-02-07T05:35:06.560Z,8.25
2023-02-07T05:37:33.090Z,9.52
2023-02-07T05:39:59.601Z,8.48
2023-02-07T05:42:26.295Z,9.68
2023-02-07T05:44:52.839Z,8.93
2023-02-07T05:47:19.335Z,10.38
2023-02-07T05:49:45.827Z,11.63
2023-02-07T05:52:12.382Z,10.48
2023-02-07T05:54:38.903Z,9.07
2023-02-07T05:57:05.394Z,10.82
2023-02-07T05:59:31.927Z,9.77
2023-02-07T06:01:58.460Z,11.82
2023-02-07T06:04:25.649Z,12.23
2023-02-07T06:06:52.147Z,13.70
2023-02-07T06:09:18.955Z,13.60
2023-02-07T06:14:11.911Z,11.40
2023-02-07T06:16:38.419Z,12.10
2023-02-07T06:19:05.047Z,9.27
2023-02-07T06:21:45.404Z,10.15
2023-02-07T06:24:12.870Z,11.38
2023-02-07T06:26:39.335Z,10.25
2023-02-07T06:29:05.840Z,10.60
2023-02-07T06:31:32.430Z,10.10
2023-02-07T06:33:59.120Z,10.13
2023-02-07T06:36:25.595Z,10.23
2023-02-07T06:38:55.713Z,11.65
2023-02-07T06:41:22.967Z,12.27
2023-02-07T06:43:49.578Z,11.13
2023-02-07T06:46:16.127Z,14.95
2023-02-07T06:48:42.730Z,14.63
2023-02-07T06:51:09.261Z,13.52
2023-02-07T06:53:35.818Z,14.02
2023-02-07T06:56:02.428Z,12.43
2023-02-07T06:58:29.002Z,12.15
2023-02-07T07:00:55.518Z,11.55
2023-02-07T07:03:27.125Z,12.75
2023-02-07T07:06:00.204Z,11.30
2023-02-07T07:08:27.252Z,11.38
2023-02-07T07:10:54.618Z,12.02
2023-02-07T07:13:21.259Z,10.70
2023-02-07T07:15:48.090Z,11.07
2023-02-07T07:20:41.288Z,10.05
2023-02-07T07:23:07.936Z,12.57
2023-02-07T07:25:34.480Z,11.13
2023-02-07T07:28:00.977Z,10.15
2023-02-07T07:30:27.733Z,12.05
2023-02-07T07:35:20.825Z,11.50
2023-02-07T07:37:47.350Z,11.65
2023-02-07T07:40:13.916Z,10.10
2023-02-07T07:42:40.539Z,11.95
2023-02-07T07:45:07.464Z,11.77
2023-02-07T07:47:33.993Z,11.65
2023-02-07T07:50:00.508Z,11.57
2023-02-07T07:52:27.082Z,11.43
2023-02-07T07:54:53.844Z,12.25
2023-02-07T07:57:21.307Z,12.60
2023-02-07T07:59:48.134Z,12.77
2023-02-07T08:02:14.738Z,11.65
2023-02-07T08:04:41.238Z,11.38
2023-02-07T08:07:07.766Z,13.45
2023-02-07T08:09:34.235Z,13.63
2023-02-07T08:12:00.899Z,13.55
2023-02-07T08:14:27.391Z,12.60
2023-02-07T08:16:53.978Z,13.13
2023-02-07T08:19:20.508Z,13.90
2023-02-07T08:21:47.052Z,13.80
2023-02-07T08:24:13.599Z,13.27
2023-02-07T08:26:40.270Z,13.85
2023-02-07T08:29:07.304Z,12.73
2023-02-07T08:31:34.306Z,13.57
2023-02-07T08:34:00.920Z,13.43
2023-02-07T08:36:27.427Z,13.18
2023-02-07T08:38:54.061Z,13.23
2023-02-07T08:41:20.562Z,14.80
2023-02-07T08:43:47.107Z,13.75
2023-02-07T08:46:13.669Z,13.35
2023-02-07T08:48:40.273Z,14.40
2023-02-07T08:51:08.573Z,13.43
2023-02-07T08:53:35.395Z,14.65
2023-02-07T08:58:28.775Z,13.15
2023-02-07T09:03:21.979Z,11.27
2023-02-07T09:05:48.600Z,13.00
2023-02-07T09:08:15.181Z,13.02
2023-02-07T09:10:42.274Z,12.23
2023-02-07T09:13:09.039Z,11.82
2023-02-07T09:15:35.586Z,12.82
2023-02-07T09:18:02.203Z,13.70
2023-02-07T09:20:28.725Z,12.43
2023-02-07T09:23:13.613Z,12.23
2023-02-07T09:25:42.754Z,11.95
2023-02-07T09:28:10.221Z,12.45
2023-02-07T09:30:36.853Z,11.52
2023-02-07T09:33:03.598Z,11.55
2023-02-07T09:35:30.398Z,10.90
2023-02-07T09:40:23.700Z,9.68
2023-02-07T09:45:43.710Z,9.35
2023-02-07T09:48:19.841Z,10.30
2023-02-07T09:50:52.649Z,9.48
2023-02-07T09:53:28.277Z,9.82
2023-02-07T09:56:00.412Z,10.15
2023-02-07T09:58:30.287Z,9.95
2023-02-07T10:01:05.404Z,10.93
2023-02-07T10:03:36.402Z,10.15
2023-02-07T10:06:17.857Z,10.02
2023-02-07T10:08:49.974Z,9.48
2023-02-07T10:11:35.271Z,9.55
2023-02-07T10:14:27.237Z,10.23
2023-02-07T10:16:53.701Z,11.18
2023-02-07T10:19:34.057Z,9.35
2023-02-07T10:22:40.916Z,8.73
2023-02-07T10:25:22.599Z,8.95
2023-02-07T10:28:17.413Z,9.45
2023-02-07T10:30:50.664Z,9.82
2023-02-07T10:33:20.044Z,8.57
2023-02-07T10:35:48.524Z,9.38
2023-02-07T10:38:38.641Z,9.68
2023-02-07T10:41:38.112Z,9.15
2023-02-07T10:44:07.159Z,9.02
2023-02-07T10:46:34.961Z,7.70
2023-02-07T10:49:02.368Z,9.23
2023-02-07T10:51:37.283Z,8.90
2023-02-07T10:54:09.822Z,10.75
2023-02-07T10:56:46.165Z,9.00
2023-02-07T10:59:38.506Z,9.98
2023-02-07T11:02:34.924Z,10.93
2023-02-07T11:05:17.618Z,8.63
2023-02-07T11:08:17.409Z,9.55
2023-02-07T11:10:47.577Z,9.27
2023-02-07T11:13:22.407Z,8.70
2023-02-07T11:16:07.231Z,8.13
2023-02-07T11:18:37.704Z,8.80
2023-02-07T11:21:07.494Z,9.32
2023-02-07T11:23:34.187Z,10.43
2023-02-07T11:28:32.709Z,8.57
2023-02-07T11:31:03.787Z,9.38
2023-02-07T11:33:33.101Z,11.18
2023-02-07T11:36:23.846Z,10.48
2023-02-07T11:38:56.313Z,10.10
2023-02-07T11:41:28.172Z,9.70
2023-02-07T11:44:01.884Z,10.48
2023-02-07T11:46:40.367Z,9.00
2023-02-07T11:49:19.910Z,10.55
2023-02-07T11:51:50.087Z,10.50
2023-02-07T11:54:16.976Z,10.10
2023-02-07T11:56:48.874Z,9.68
2023-02-07T11:59:28.234Z,9.48
2023-02-07T12:01:58.505Z,10.10
2023-02-07T12:04:28.693Z,11.18
2023-02-07T12:07:01.207Z,10.30
2023-02-07T12:09:40.893Z,11.25
2023-02-07T12:12:19.916Z,9.32
2023-02-07T12:14:59.571Z,9.45
2023-02-07T12:17:58.432Z,9.52
2023-02-07T12:20:26.619Z,8.77
2023-02-07T12:23:40.730Z,10.23
2023-02-07T12:26:28.180Z,9.15
2023-02-07T12:29:47.501Z,10.63
2023-02-07T12:32:55.639Z,9.43
2023-02-07T12:35:27.493Z,8.67
2023-02-07T12:38:12.212Z,8.13
2023-02-07T12:40:54.301Z,9.05
2023-02-07T12:43:37.956Z,9.38
2023-02-07T12:46:17.572Z,8.88
2023-02-07T12:49:08.747Z,8.43
2023-02-07T12:52:06.340Z,8.10
2023-02-07T12:57:19.393Z,7.07
2023-02-07T13:00:07.426Z,7.55
2023-02-07T13:02:44.352Z,6.70
2023-02-07T13:05:19.886Z,7.93
2023-02-07T13:07:48.997Z,7.13
2023-02-07T13:10:38.621Z,8.23
2023-02-07T13:13:25.488Z,7.55
2023-02-07T13:16:00.001Z,7.67
2023-02-07T13:18:46.475Z,6.47
2023-02-07T13:21:23.175Z,6.50
2023-02-07T13:23:49.882Z,7.05
2023-02-07T13:28:51.711Z,6.38
2023-02-07T13:31:41.723Z,7.00
2023-02-07T13:34:15.909Z,6.65
2023-02-07T13:36:51.698Z,6.35
2023-02-07T13:39:36.300Z,7.35
2023-02-07T13:42:41.511Z,6.10
2023-02-07T13:45:17.791Z,6.85
2023-02-07T13:47:56.317Z,6.87
2023-02-07T13:50:40.593Z,6.18
2023-02-07T13:53:29.040Z,5.60
2023-02-07T13:56:02.762Z,5.90
2023-02-07T13:58:53.883Z,5.82
2023-02-07T14:01:25.951Z,5.80
2023-02-07T14:04:02.057Z,6.28
2023-02-07T14:06:33.607Z,4.93
2023-02-07T14:09:10.127Z,5.03
2023-02-07T14:11:44.540Z,5.15
2023-02-07T14:14:14.469Z,5.57
2023-02-07T14:17:08.987Z,5.10
2023-02-07T14:19:41.554Z,5.72
2023-02-07T14:22:21.509Z,4.78
2023-02-07T14:25:18.982Z,5.68
2023-02-07T14:27:51.537Z,5.77
2023-02-07T14:30:57.224Z,6.07
2023-02-07T14:33:35.040Z,6.25
2023-02-07T14:36:13.402Z,5.80
2023-02-07T14:38:41.140Z,5.88
2023-02-07T14:41:14.203Z,5.65
2023-02-07T14:43:47.957Z,5.60
2023-02-07T14:46:26.912Z,5.25
2023-02-07T14:49:11.639Z,5.28
2023-02-07T14:51:48.375Z,5.57
2023-02-07T14:54:17.327Z,5.30
2023-02-07T14:56:52.738Z,5.55
2023-02-07T14:59:38.047Z,5.70
2023-02-07T15:02:40.561Z,5.18
2023-02-07T15:05:13.245Z,5.68
2023-02-07T15:07:43.529Z,5.18
2023-02-07T15:10:22.876Z,5.88
2023-02-07T15:12:50.851Z,6.55
2023-02-07T15:15:20.932Z,8.07
2023-02-07T15:17:48.523Z,6.90
2023-02-07T15:20:18.203Z,7.15
2023-02-07T15:22:49.288Z,6.53
2023-02-07T15:25:16.724Z,7.30
2023-02-07T15:27:43.253Z,6.38
2023-02-07T15:30:18.198Z,7.50
2023-02-07T15:32:47.443Z,7.88
2023-02-07T15:35:18.682Z,7.43
2023-02-07T15:37:48.565Z,8.85
2023-02-07T15:40:17.712Z,8.60
2023-02-07T15:42:56.497Z,7.60
2023-02-07T15:45:28.759Z,7.75
2023-02-07T15:48:07.200Z,9.07
2023-02-07T15:50:34.530Z,9.23
2023-02-07T15:53:03.580Z,10.40
2023-02-07T15:55:35.112Z,10.30
2023-02-07T15:58:03.017Z,11.13
2023-02-07T16:00:32.306Z,9.23
2023-02-07T16:03:01.774Z,9.50
2023-02-07T16:05:31.781Z,10.80
2023-02-07T16:07:59.710Z,12.70
2023-02-07T16:10:29.111Z,13.40
2023-02-07T16:13:17.581Z,13.10
2023-02-07T16:15:57.253Z,13.25
2023-02-07T16:18:43.060Z,10.23
2023-02-07T16:21:16.936Z,8.60
2023-02-07T16:23:44.976Z,9.10
2023-02-07T16:26:12.906Z,9.55
2023-02-07T16:28:39.636Z,7.32
2023-02-07T16:33:32.788Z,8.98
2023-02-07T16:35:59.408Z,6.82
2023-02-07T16:38:25.990Z,7.05
2023-02-07T16:40:52.550Z,7.57
2023-02-07T16:43:34.039Z,8.02
2023-02-07T16:46:02.160Z,8.35
2023-02-07T16:48:28.731Z,9.98
2023-02-07T16:50:55.394Z,8.93
2023-02-07T16:53:21.896Z,10.50
2023-02-07T16:55:48.462Z,11.25
2023-02-07T16:58:25.474Z,9.55
2023-02-07T17:00:53.335Z,8.27
2023-02-07T17:03:19.924Z,8.98
2023-02-07T17:05:46.743Z,8.63
2023-02-07T17:10:49.748Z,8.55
2023-02-07T17:13:16.324Z,8.27
2023-02-07T17:15:42.820Z,10.80
2023-02-07T17:18:11.618Z,9.10
2023-02-07T17:20:38.811Z,8.85
2023-02-07T17:23:05.557Z,7.97
2023-02-07T17:25:32.301Z,8.90
2023-02-07T17:27:59.815Z,7.72
2023-02-07T17:30:30.074Z,8.63
2023-02-07T17:32:57.771Z,8.30
2023-02-07T17:35:24.327Z,9.00
2023-02-07T17:37:50.791Z,8.88
2023-02-07T17:40:23.422Z,13.35
2023-02-07T17:42:50.363Z,14.20
2023-02-07T17:45:17.439Z,12.25
2023-02-07T17:47:44.113Z,11.35
2023-02-07T17:50:16.776Z,11.18
2023-02-07T17:52:43.413Z,11.13
2023-02-07T17:55:09.962Z,9.10
2023-02-07T17:57:36.438Z,12.88
2023-02-07T18:00:04.672Z,11.45
2023-02-07T18:02:32.995Z,11.20
2023-02-07T18:04:59.467Z,10.65
2023-02-07T18:07:27.916Z,13.98
2023-02-07T18:09:54.453Z,11.98
2023-02-07T18:12:20.935Z,14.63
2023-02-07T18:14:47.460Z,17.08
2023-02-07T18:17:14.174Z,21.02
2023-02-07T18:19:40.669Z,16.60
2023-02-07T18:22:07.179Z,18.13
2023-02-07T18:24:33.650Z,14.80
2023-02-07T18:27:00.194Z,14.75
2023-02-07T18:29:26.774Z,15.35
2023-02-07T18:31:53.291Z,13.82
2023-02-07T18:34:19.840Z,13.60
2023-02-07T18:36:46.413Z,11.02
2023-02-07T18:39:13.756Z,11.90
2023-02-07T18:41:40.583Z,12.48
2023-02-07T18:46:33.866Z,11.23
2023-02-07T18:49:00.526Z,12.88
2023-02-07T18:51:27.179Z,18.48
2023-02-07T18:53:56.525Z,19.13
2023-02-07T18:56:25.033Z,16.42
2023-02-07T18:58:59.048Z,18.95
2023-02-07T19:01:27.988Z,17.45
2023-02-07T19:03:55.164Z,17.65
2023-02-07T19:06:23.500Z,16.80
2023-02-07T19:08:50.075Z,15.73
2023-02-07T19:11:17.031Z,16.27
2023-02-07T19:13:43.682Z,17.73
2023-02-07T19:16:19.572Z,17.83
2023-02-07T19:18:46.569Z,22.70
2023-02-07T19:21:19.172Z,18.52
2023-02-07T19:23:45.689Z,16.33
2023-02-07T19:26:12.313Z,16.02
2023-02-07T19:28:39.652Z,17.25
2023-02-07T19:31:09.255Z,16.20
2023-02-07T19:33:36.544Z,15.32
2023-02-07T19:36:08.793Z,15.30
2023-02-07T19:38:35.874Z,21.73
2023-02-07T19:41:03.174Z,16.38
2023-02-07T19:43:30.041Z,17.83
2023-02-07T19:48:24.085Z,18.33
2023-02-07T19:50:58.639Z,23.33
2023-02-07T19:53:25.427Z,30.15
2023-02-07T19:58:19.018Z,26.55
2023-02-07T20:00:45.537Z,19.63
2023-02-07T20:03:12.061Z,21.65
2023-02-07T20:05:45.797Z,19.45
2023-02-07T20:08:12.582Z,19.60
2023-02-07T20:13:14.117Z,20.38
2023-02-07T20:15:45.325Z,23.60
2023-02-07T20:18:13.152Z,22.05
2023-02-07T20:20:46.607Z,23.35
2023-02-07T20:23:14.507Z,24.92
2023-02-07T20:25:41.089Z,23.70
2023-02-07T20:28:08.353Z,23.77
2023-02-07T20:30:35.589Z,24.70
2023-02-07T20:33:02.299Z,25.70
2023-02-07T20:35:28.885Z,26.67
2023-02-07T20:37:55.354Z,26.05
2023-02-07T20:40:21.846Z,26.55
2023-02-07T20:42:48.330Z,28.92
2023-02-07T20:45:14.838Z,24.13
2023-02-07T20:47:41.277Z,26.88
2023-02-07T20:50:08.128Z,26.80
2023-02-07T20:55:07.553Z,21.65
2023-02-07T20:57:34.082Z,23.70
2023-02-07T21:00:00.696Z,21.55
2023-02-07T21:02:27.299Z,22.98
2023-02-07T21:04:53.928Z,27.58
2023-02-07T21:07:20.397Z,28.67
2023-02-07T21:09:46.951Z,27.30
2023-02-07T21:14:40.839Z,26.00
2023-02-07T21:17:07.632Z,23.45
2023-02-07T21:22:01.483Z,24.93
2023-02-07T21:24:28.315Z,25.13
2023-02-07T21:29:22.489Z,22.15
2023-02-07T21:31:49.146Z,22.33
2023-02-07T21:34:17.843Z,24.77
2023-02-07T21:36:45.099Z,23.90
2023-02-07T21:39:12.520Z,22.40
2023-02-07T21:49:17.584Z,17.80
2023-02-07T21:51:46.068Z,20.55
2023-02-07T21:54:12.599Z,22.38
2023-02-07T21:56:42.970Z,21.23
2023-02-07T21:59:15.230Z,20.65
2023-02-07T22:01:42.946Z,22.60
2023-02-07T22:04:11.016Z,19.08
2023-02-07T22:06:42.026Z,22.52
2023-02-07T22:09:11.074Z,19.15
2023-02-07T22:11:37.629Z,21.05
2023-02-07T22:14:04.416Z,21.73
2023-02-07T22:16:32.690Z,20.45
2023-02-07T22:19:00.647Z,19.25
2023-02-07T22:21:37.415Z,22.17
2023-02-07T22:24:06.043Z,19.90
2023-02-07T22:26:34.263Z,16.80
2023-02-07T22:29:01.897Z,16.58
2023-02-07T22:31:30.961Z,20.27
2023-02-07T22:34:04.203Z,20.92
2023-02-07T22:36:33.545Z,20.70
2023-02-07T22:39:01.915Z,14.88
2023-02-07T22:41:29.377Z,16.55
2023-02-07T22:43:56.358Z,17.40
2023-02-07T22:46:24.624Z,20.48
2023-02-07T22:48:52.186Z,17.80
2023-02-07T22:51:27.641Z,23.95
2023-02-07T22:54:01.093Z,22.70
2023-02-07T22:56:28.493Z,22.92
2023-02-07T22:58:55.697Z,19.55
2023-02-07T23:01:28.815Z,18.38
2023-02-07T23:03:56.386Z,22.33
2023-02-07T23:06:23.750Z,24.00
2023-02-07T23:08:50.745Z,27.45
2023-02-07T23:11:19.490Z,23.25
2023-02-07T23:13:45.986Z,18.48
2023-02-07T23:16:14.462Z,15.15
2023-02-07T23:18:41.311Z,15.88
2023-02-07T23:23:36.192Z,15.82
2023-02-07T23:26:05.570Z,18.10
2023-02-07T23:28:32.011Z,19.23
2023-02-07T23:30:58.547Z,22.30
2023-02-07T23:33:25.018Z,18.77
2023-02-07T23:35:51.480Z,19.50
2023-02-07T23:38:17.935Z,16.60
2023-02-07T23:40:44.384Z,15.52
2023-02-07T23:43:10.907Z,16.08
2023-02-07T23:45:38.599Z,14.82
2023-02-07T23:48:07.022Z,16.13
2023-02-07T23:50:34.492Z,21.33
2023-02-07T23:53:01.264Z,18.98
2023-02-07T23:57:55.241Z,18.63
